createdAt,value
2018-02-21T00:00:00.923Z,1.00
2018-02-21T00:02:28.373Z,1.00
2018-02-21T00:04:55.837Z,1.00
2018-02-21T00:07:23.302Z,1.00
2018-02-21T00:09:50.761Z,1.00
2018-02-21T00:12:18.222Z,1.00
2018-02-21T00:14:45.693Z,1.00
2018-02-21T00:17:13.160Z,1.00
2018-02-21T00:19:40.617Z,0.90
2018-02-21T00:22:08.073Z,0.90
2018-02-21T00:24:35.561Z,0.90
2018-02-21T00:27:03.801Z,0.90
2018-02-21T00:29:31.335Z,0.90
2018-02-21T00:31:58.787Z,0.90
2018-02-21T00:34:26.348Z,0.90
2018-02-21T00:36:53.803Z,0.90
2018-02-21T00:39:21.245Z,0.90
2018-02-21T00:41:48.700Z,0.90
2018-02-21T00:44:16.150Z,0.90
2018-02-21T00:46:45.179Z,0.90
2018-02-21T00:49:12.633Z,0.80
2018-02-21T00:51:40.096Z,0.90
2018-02-21T00:54:07.544Z,0.80
2018-02-21T00:56:35.001Z,0.80
2018-02-21T00:59:02.457Z,0.80
2018-02-21T01:01:29.913Z,0.70
2018-02-21T01:03:57.368Z,0.70
2018-02-21T01:06:24.832Z,0.70
2018-02-21T01:08:52.286Z,0.70
2018-02-21T01:11:19.745Z,0.60
2018-02-21T01:13:47.209Z,0.60
2018-02-21T01:16:14.678Z,0.60
2018-02-21T01:18:42.137Z,0.50
2018-02-21T01:21:09.601Z,0.40
2018-02-21T01:23:37.065Z,0.40
2018-02-21T01:26:05.319Z,0.30
2018-02-21T01:28:32.769Z,0.30
2018-02-21T01:31:00.221Z,0.30
2018-02-21T01:33:27.671Z,0.20
2018-02-21T01:35:55.136Z,0.20
2018-02-21T01:38:23.093Z,0.20
2018-02-21T01:40:50.557Z,0.20
2018-02-21T01:43:18.014Z,0.20
2018-02-21T01:45:45.468Z,0.20
2018-02-21T01:48:12.923Z,0.20
2018-02-21T01:50:52.220Z,0.20
2018-02-21T01:53:20.441Z,0.20
2018-02-21T01:55:47.913Z,0.20
2018-02-21T01:58:15.375Z,0.20
2018-02-21T02:00:43.718Z,0.20
2018-02-21T02:03:11.170Z,0.20
2018-02-21T02:05:38.641Z,0.10
2018-02-21T02:08:06.093Z,0.10
2018-02-21T02:10:33.550Z,0.10
2018-02-21T02:13:01.022Z,0.10
2018-02-21T02:15:28.497Z,0.10
2018-02-21T02:17:55.960Z,0.20
2018-02-21T02:20:23.422Z,0.20
2018-02-21T02:22:50.880Z,0.20
2018-02-21T02:25:19.107Z,0.20
2018-02-21T02:27:47.230Z,0.20
2018-02-21T02:30:15.482Z,0.20
2018-02-21T02:32:42.963Z,0.20
2018-02-21T02:35:10.412Z,0.20
2018-02-21T02:37:37.872Z,0.20
2018-02-21T02:40:06.097Z,0.30
2018-02-21T02:42:33.548Z,0.30
2018-02-21T02:45:01.004Z,0.30
2018-02-21T02:47:28.462Z,0.30
2018-02-21T02:49:55.923Z,0.20
2018-02-21T02:52:23.396Z,0.20
2018-02-21T02:54:50.837Z,0.20
2018-02-21T02:57:18.293Z,0.20
2018-02-21T02:59:45.760Z,0.20
2018-02-21T03:02:13.261Z,0.30
2018-02-21T03:04:41.490Z,0.30
2018-02-21T03:07:08.953Z,0.30
2018-02-21T03:09:36.402Z,0.40
2018-02-21T03:12:03.874Z,0.40
2018-02-21T03:14:31.329Z,0.40
2018-02-21T03:16:58.797Z,0.40
2018-02-21T03:19:26.258Z,0.40
2018-02-21T03:21:53.741Z,0.40
2018-02-21T03:24:21.985Z,0.40
2018-02-21T03:26:49.447Z,0.40
2018-02-21T03:29:16.909Z,0.40
2018-02-21T03:31:44.373Z,0.40
2018-02-21T03:34:12.593Z,0.40
2018-02-21T03:36:40.055Z,0.40
2018-02-21T03:39:07.496Z,0.50
2018-02-21T03:41:34.966Z,0.40
2018-02-21T03:44:02.460Z,0.50
2018-02-21T03:46:29.917Z,0.50
2018-02-21T03:48:57.380Z,0.40
2018-02-21T03:51:24.895Z,0.50
2018-02-21T03:53:52.369Z,0.40
2018-02-21T03:56:19.822Z,0.40
2018-02-21T03:58:47.277Z,0.40
2018-02-21T04:01:14.747Z,0.40
2018-02-21T04:03:42.197Z,0.50
2018-02-21T04:06:10.428Z,0.40
2018-02-21T04:08:37.893Z,0.40
2018-02-21T04:11:05.345Z,0.40
2018-02-21T04:13:32.813Z,0.50
2018-02-21T04:16:00.284Z,0.40
2018-02-21T04:18:27.761Z,0.50
2018-02-21T04:20:55.221Z,0.50
2018-02-21T04:23:23.598Z,0.50
2018-02-21T04:25:51.044Z,0.40
2018-02-21T04:28:18.504Z,0.40
2018-02-21T04:30:45.952Z,0.40
2018-02-21T04:33:13.416Z,0.30
2018-02-21T04:35:40.872Z,0.40
2018-02-21T04:38:08.329Z,0.30
2018-02-21T04:40:35.789Z,0.30
2018-02-21T04:43:03.261Z,0.30
2018-02-21T04:45:30.710Z,0.30
2018-02-21T04:47:58.164Z,0.40
2018-02-21T04:50:25.644Z,0.40
2018-02-21T04:52:53.873Z,0.30
2018-02-21T04:55:27.011Z,0.40
2018-02-21T04:58:01.154Z,0.30
2018-02-21T05:00:28.621Z,0.40
2018-02-21T05:02:56.080Z,0.40
2018-02-21T05:05:23.537Z,0.40
2018-02-21T05:07:51.001Z,0.40
2018-02-21T05:10:18.476Z,0.40
2018-02-21T05:12:45.952Z,0.40
2018-02-21T05:15:13.408Z,0.50
2018-02-21T05:17:40.877Z,0.50
2018-02-21T05:20:08.328Z,0.50
2018-02-21T05:22:35.789Z,0.50
2018-02-21T05:25:03.253Z,0.50
2018-02-21T05:27:30.714Z,0.60
2018-02-21T05:29:58.934Z,0.60
2018-02-21T05:32:26.385Z,0.60
2018-02-21T05:34:53.937Z,0.60
2018-02-21T05:37:21.385Z,0.60
2018-02-21T05:39:48.840Z,0.70
2018-02-21T05:42:16.298Z,0.60
2018-02-21T05:44:43.759Z,0.70
2018-02-21T05:47:11.219Z,0.70
2018-02-21T05:49:38.678Z,0.70
2018-02-21T05:52:06.145Z,0.70
2018-02-21T05:54:33.597Z,0.70
2018-02-21T05:57:01.050Z,0.70
2018-02-21T05:59:28.506Z,0.70
2018-02-21T06:01:55.955Z,0.70
2018-02-21T06:04:23.470Z,0.70
2018-02-21T06:06:50.930Z,0.70
2018-02-21T06:09:18.389Z,0.70
2018-02-21T06:11:46.611Z,0.70
2018-02-21T06:14:14.810Z,0.70
2018-02-21T06:16:42.280Z,0.70
2018-02-21T06:19:10.516Z,0.70
2018-02-21T06:21:37.985Z,0.70
2018-02-21T06:24:05.453Z,0.70
2018-02-21T06:26:32.909Z,0.80
2018-02-21T06:29:00.369Z,0.80
2018-02-21T06:31:27.846Z,0.80
2018-02-21T06:33:55.311Z,0.80
2018-02-21T06:36:22.770Z,0.80
2018-02-21T06:38:50.992Z,0.80
2018-02-21T06:41:18.461Z,0.80
2018-02-21T06:43:45.926Z,0.80
2018-02-21T06:46:13.376Z,0.80
2018-02-21T06:48:40.869Z,0.80
2018-02-21T06:51:09.084Z,0.80
2018-02-21T06:53:36.551Z,0.80
2018-02-21T06:56:04.007Z,0.80
2018-02-21T06:58:31.468Z,0.90
2018-02-21T07:00:58.926Z,0.90
2018-02-21T07:03:26.385Z,0.90
2018-02-21T07:05:53.841Z,0.90
2018-02-21T07:08:21.292Z,0.90
2018-02-21T07:10:48.752Z,0.90
2018-02-21T07:13:16.231Z,0.90
2018-02-21T07:15:43.685Z,0.90
2018-02-21T07:18:11.140Z,0.90
2018-02-21T07:20:39.102Z,0.90
2018-02-21T07:23:06.525Z,0.90
2018-02-21T07:25:33.990Z,0.90
2018-02-21T07:28:01.445Z,0.90
2018-02-21T07:30:28.908Z,0.90
2018-02-21T07:32:56.362Z,0.90
2018-02-21T07:35:23.821Z,0.90
2018-02-21T07:37:51.277Z,0.90
2018-02-21T07:40:18.737Z,0.90
2018-02-21T07:42:46.188Z,0.90
2018-02-21T07:45:13.724Z,0.90
2018-02-21T07:47:41.145Z,0.90
2018-02-21T07:50:08.605Z,0.90
2018-02-21T07:52:36.058Z,1.00
2018-02-21T07:55:03.518Z,1.00
2018-02-21T07:57:30.972Z,1.00
2018-02-21T07:59:59.325Z,1.00
2018-02-21T08:02:26.772Z,1.00
2018-02-21T08:04:54.242Z,1.00
2018-02-21T08:07:21.702Z,1.10
2018-02-21T08:09:49.161Z,1.00
2018-02-21T08:12:16.617Z,1.10
2018-02-21T08:14:44.082Z,1.10
2018-02-21T08:17:11.542Z,1.10
2018-02-21T08:19:39.038Z,1.10
2018-02-21T08:22:06.505Z,1.10
2018-02-21T08:24:33.973Z,1.10
2018-02-21T08:27:01.430Z,1.20
2018-02-21T08:29:28.888Z,1.20
2018-02-21T08:31:56.345Z,1.20
2018-02-21T08:34:23.810Z,1.20
2018-02-21T08:36:52.090Z,1.30
2018-02-21T08:39:20.305Z,1.30
2018-02-21T08:41:49.093Z,1.30
2018-02-21T08:44:16.538Z,1.30
2018-02-21T08:46:43.993Z,1.30
2018-02-21T08:49:11.453Z,1.30
2018-02-21T08:51:38.913Z,1.30
2018-02-21T08:54:06.361Z,1.40
2018-02-21T08:56:33.821Z,1.40
2018-02-21T08:59:01.310Z,1.40
2018-02-21T09:01:28.785Z,1.50
2018-02-21T09:03:56.234Z,1.50
2018-02-21T09:06:23.686Z,1.60
2018-02-21T09:08:51.133Z,1.70
2018-02-21T09:11:19.360Z,1.80
2018-02-21T09:13:46.814Z,1.80
2018-02-21T09:16:14.274Z,1.80
2018-02-21T09:18:41.725Z,1.90
2018-02-21T09:21:10.073Z,1.90
2018-02-21T09:23:37.534Z,1.90
2018-02-21T09:26:06.212Z,1.90
2018-02-21T09:28:33.706Z,2.00
2018-02-21T09:31:01.173Z,2.00
2018-02-21T09:33:28.634Z,2.00
2018-02-21T09:35:56.097Z,2.10
2018-02-21T09:38:23.550Z,2.10
2018-02-21T09:40:51.021Z,2.10
2018-02-21T09:43:18.461Z,2.10
2018-02-21T09:45:45.921Z,2.10
2018-02-21T09:48:13.374Z,2.10
2018-02-21T09:50:40.833Z,2.10
2018-02-21T09:53:08.285Z,2.00
2018-02-21T09:55:35.756Z,2.10
2018-02-21T09:58:03.204Z,2.10
2018-02-21T10:00:30.657Z,2.10
2018-02-21T10:02:58.105Z,2.10
2018-02-21T10:05:25.602Z,2.20
2018-02-21T10:07:53.060Z,2.20
2018-02-21T10:10:20.524Z,2.10
2018-02-21T10:12:47.997Z,2.10
2018-02-21T10:15:15.461Z,2.10
2018-02-21T10:17:42.925Z,2.10
2018-02-21T10:20:10.393Z,2.00
2018-02-21T10:22:37.853Z,2.00
2018-02-21T10:25:05.305Z,1.90
2018-02-21T10:27:32.774Z,1.90
2018-02-21T10:30:00.229Z,1.90
2018-02-21T10:32:27.694Z,1.90
2018-02-21T10:34:55.140Z,2.00
2018-02-21T10:37:22.602Z,2.00
2018-02-21T10:39:50.051Z,2.00
2018-02-21T10:42:17.525Z,2.00
2018-02-21T10:44:44.972Z,2.10
2018-02-21T10:47:12.429Z,2.20
2018-02-21T10:49:39.883Z,2.30
2018-02-21T10:52:07.342Z,2.40
2018-02-21T10:54:34.812Z,2.50
2018-02-21T10:57:02.274Z,2.60
2018-02-21T10:59:29.730Z,2.60
2018-02-21T11:01:57.190Z,2.60
2018-02-21T11:04:25.414Z,2.80
2018-02-21T11:06:53.705Z,2.80
2018-02-21T11:09:21.163Z,2.70
2018-02-21T11:11:48.620Z,2.60
2018-02-21T11:14:16.074Z,2.40
2018-02-21T11:16:43.546Z,2.40
2018-02-21T11:19:11.002Z,2.40
2018-02-21T11:21:38.458Z,2.50
2018-02-21T11:24:05.901Z,2.60
2018-02-21T11:26:33.367Z,2.70
2018-02-21T11:29:00.825Z,2.80
2018-02-21T11:31:28.338Z,2.80
2018-02-21T11:33:55.744Z,2.70
2018-02-21T11:36:23.219Z,2.60
2018-02-21T11:38:50.666Z,2.50
2018-02-21T11:41:18.126Z,2.50
2018-02-21T11:43:45.580Z,2.40
2018-02-21T11:46:13.053Z,2.40
2018-02-21T11:48:41.285Z,2.60
2018-02-21T11:51:08.754Z,2.60
2018-02-21T11:53:36.229Z,2.70
2018-02-21T11:56:03.685Z,2.80
2018-02-21T11:58:31.152Z,2.90
2018-02-21T12:00:59.365Z,3.00
2018-02-21T12:03:26.825Z,3.00
2018-02-21T12:05:54.295Z,3.10
2018-02-21T12:08:21.832Z,3.10
2018-02-21T12:10:49.287Z,3.10
2018-02-21T12:13:17.329Z,3.10
2018-02-21T12:15:45.569Z,3.20
2018-02-21T12:18:13.027Z,3.20
2018-02-21T12:20:40.489Z,3.20
2018-02-21T12:23:07.949Z,3.20
2018-02-21T12:25:35.401Z,3.30
2018-02-21T12:28:02.857Z,3.30
2018-02-21T12:30:30.346Z,3.40
2018-02-21T12:32:59.114Z,3.50
2018-02-21T12:35:26.573Z,3.50
2018-02-21T12:37:54.815Z,3.60
2018-02-21T12:40:27.870Z,3.60
2018-02-21T12:42:55.328Z,3.60
2018-02-21T12:45:22.782Z,3.60
2018-02-21T12:47:50.251Z,3.60
2018-02-21T12:50:17.747Z,3.60
2018-02-21T12:52:45.169Z,3.60
2018-02-21T12:55:12.650Z,3.60
2018-02-21T12:57:40.093Z,3.60
2018-02-21T13:00:07.557Z,3.60
2018-02-21T13:02:35.034Z,3.60
2018-02-21T13:05:02.512Z,3.60
2018-02-21T13:07:29.985Z,3.60
2018-02-21T13:09:58.192Z,3.60
2018-02-21T13:12:25.649Z,3.50
2018-02-21T13:14:53.104Z,3.60
2018-02-21T13:17:20.573Z,3.60
2018-02-21T13:19:48.041Z,3.60
2018-02-21T13:22:15.510Z,3.70
2018-02-21T13:24:42.956Z,3.70
2018-02-21T13:27:10.445Z,3.80
2018-02-21T13:29:38.680Z,3.90
2018-02-21T13:32:06.133Z,3.90
2018-02-21T13:34:33.605Z,3.90
2018-02-21T13:37:01.059Z,3.90
2018-02-21T13:39:28.511Z,3.90
2018-02-21T13:41:55.961Z,4.00
2018-02-21T13:44:24.190Z,4.00
2018-02-21T13:46:51.629Z,4.00
2018-02-21T13:49:19.089Z,4.00
2018-02-21T13:51:46.561Z,4.00
2018-02-21T13:54:14.009Z,4.10
2018-02-21T13:56:41.465Z,4.10
2018-02-21T13:59:10.362Z,4.20
2018-02-21T14:01:37.821Z,4.20
2018-02-21T14:04:05.285Z,4.20
2018-02-21T14:06:32.742Z,4.30
2018-02-21T14:09:00.241Z,4.30
2018-02-21T14:11:27.698Z,4.30
2018-02-21T14:13:55.600Z,4.20
2018-02-21T14:16:23.053Z,4.30
2018-02-21T14:18:51.285Z,4.20
2018-02-21T14:21:18.753Z,4.20
2018-02-21T14:23:46.217Z,4.20
2018-02-21T14:26:13.677Z,4.20
2018-02-21T14:28:41.142Z,4.20
2018-02-21T14:31:08.597Z,4.20
2018-02-21T14:33:36.048Z,4.20
2018-02-21T14:36:03.512Z,4.20
2018-02-21T14:38:30.978Z,4.20
2018-02-21T14:40:58.437Z,4.20
2018-02-21T14:43:26.690Z,4.10
2018-02-21T14:45:54.145Z,4.10
2018-02-21T14:48:21.606Z,4.10
2018-02-21T14:50:49.065Z,4.10
2018-02-21T14:53:16.546Z,4.10
2018-02-21T14:55:44.766Z,4.10
2018-02-21T14:58:12.221Z,4.10
2018-02-21T15:00:39.690Z,4.20
2018-02-21T15:03:07.958Z,4.20
2018-02-21T15:05:35.421Z,4.20
2018-02-21T15:08:02.887Z,4.20
2018-02-21T15:10:30.355Z,4.20
2018-02-21T15:12:57.819Z,4.20
2018-02-21T15:15:26.111Z,4.20
2018-02-21T15:17:54.341Z,4.20
2018-02-21T15:20:21.810Z,4.20
2018-02-21T15:22:49.264Z,4.20
2018-02-21T15:25:17.561Z,4.20
2018-02-21T15:27:45.022Z,4.20
2018-02-21T15:30:12.486Z,4.20
2018-02-21T15:32:39.930Z,4.20
2018-02-21T15:35:07.453Z,4.10
2018-02-21T15:37:35.605Z,4.10
2018-02-21T15:40:03.080Z,4.10
2018-02-21T15:42:30.526Z,4.10
2018-02-21T15:44:57.981Z,4.20
2018-02-21T15:47:25.443Z,4.10
2018-02-21T15:49:52.910Z,4.10
2018-02-21T15:52:20.365Z,4.10
2018-02-21T15:54:47.821Z,4.00
2018-02-21T15:57:15.278Z,4.00
2018-02-21T15:59:42.754Z,4.00
2018-02-21T16:02:10.197Z,4.00
2018-02-21T16:04:37.656Z,3.90
2018-02-21T16:07:05.873Z,3.90
2018-02-21T16:09:34.105Z,3.90
2018-02-21T16:12:02.319Z,3.80
2018-02-21T16:14:30.562Z,3.70
2018-02-21T16:16:58.017Z,3.70
2018-02-21T16:19:26.246Z,3.60
2018-02-21T16:21:53.702Z,3.60
2018-02-21T16:24:21.166Z,3.60
2018-02-21T16:26:48.629Z,3.50
2018-02-21T16:29:16.090Z,3.40
2018-02-21T16:31:43.543Z,3.40
2018-02-21T16:34:11.049Z,3.30
2018-02-21T16:36:38.888Z,3.30
2018-02-21T16:39:05.966Z,3.20
2018-02-21T16:41:33.427Z,3.10
2018-02-21T16:44:01.661Z,3.10
2018-02-21T16:46:29.109Z,3.00
2018-02-21T16:48:56.564Z,3.00
2018-02-21T16:51:24.021Z,3.00
2018-02-21T16:53:57.077Z,2.90
2018-02-21T16:56:24.542Z,2.90
2018-02-21T16:58:51.995Z,2.80
2018-02-21T17:01:19.461Z,2.80
2018-02-21T17:03:46.912Z,2.70
2018-02-21T17:06:14.373Z,2.70
2018-02-21T17:08:41.825Z,2.70
2018-02-21T17:11:09.286Z,2.60
2018-02-21T17:13:36.738Z,2.60
2018-02-21T17:16:04.193Z,2.50
2018-02-21T17:18:31.653Z,2.50
2018-02-21T17:20:59.113Z,2.40
2018-02-21T17:23:26.565Z,2.40
2018-02-21T17:25:54.041Z,2.30
2018-02-21T17:28:21.500Z,2.30
2018-02-21T17:30:48.957Z,2.30
2018-02-21T17:33:16.415Z,2.20
2018-02-21T17:35:43.873Z,2.20
2018-02-21T17:38:11.322Z,2.20
2018-02-21T17:40:44.449Z,2.20
2018-02-21T17:43:11.905Z,2.10
2018-02-21T17:45:39.374Z,2.10
2018-02-21T17:48:06.842Z,2.10
2018-02-21T17:50:35.117Z,2.10
2018-02-21T17:53:03.336Z,2.00
2018-02-21T17:55:30.806Z,2.00
2018-02-21T17:57:58.265Z,2.00
2018-02-21T18:00:25.732Z,2.00
2018-02-21T18:02:53.190Z,2.00
2018-02-21T18:05:20.654Z,2.00
2018-02-21T18:07:48.113Z,1.90
2018-02-21T18:10:16.357Z,1.80
2018-02-21T18:12:43.804Z,1.80
2018-02-21T18:15:11.256Z,1.80
2018-02-21T18:17:38.731Z,1.80
2018-02-21T18:20:06.178Z,1.70
2018-02-21T18:22:33.633Z,1.60
2018-02-21T18:25:01.094Z,1.60
2018-02-21T18:27:28.561Z,1.60
2018-02-21T18:29:56.027Z,1.60
2018-02-21T18:32:23.496Z,1.50
2018-02-21T18:34:50.942Z,1.50
2018-02-21T18:37:18.445Z,1.40
2018-02-21T18:39:45.900Z,1.40
2018-02-21T18:42:13.401Z,1.40
2018-02-21T18:44:40.850Z,1.40
2018-02-21T18:47:08.305Z,1.30
2018-02-21T18:49:35.773Z,1.30
2018-02-21T18:52:03.997Z,1.30
2018-02-21T18:54:32.243Z,1.20
2018-02-21T18:56:59.729Z,1.20
2018-02-21T18:59:27.942Z,1.30
2018-02-21T19:01:55.403Z,1.20
2018-02-21T19:04:22.849Z,1.20
2018-02-21T19:06:50.318Z,1.20
2018-02-21T19:09:17.776Z,1.30
2018-02-21T19:11:45.247Z,1.30
2018-02-21T19:14:12.700Z,1.30
2018-02-21T19:16:40.156Z,1.20
2018-02-21T19:19:07.618Z,1.20
2018-02-21T19:21:35.086Z,1.30
2018-02-21T19:24:02.540Z,1.20
2018-02-21T19:26:30.005Z,1.30
2018-02-21T19:28:57.465Z,1.30
2018-02-21T19:31:24.921Z,1.30
2018-02-21T19:33:52.374Z,1.30
2018-02-21T19:36:19.849Z,1.30
2018-02-21T19:38:48.069Z,1.30
2018-02-21T19:41:15.525Z,1.30
2018-02-21T19:43:42.982Z,1.30
2018-02-21T19:46:11.437Z,1.30
2018-02-21T19:48:38.889Z,1.30
2018-02-21T19:51:06.353Z,1.30
2018-02-21T19:53:33.836Z,1.30
2018-02-21T19:56:01.322Z,1.30
2018-02-21T19:58:28.788Z,1.30
2018-02-21T20:00:56.242Z,1.20
2018-02-21T20:03:23.717Z,1.20
2018-02-21T20:05:52.074Z,1.20
2018-02-21T20:08:19.635Z,1.20
2018-02-21T20:10:47.104Z,1.20
2018-02-21T20:13:14.576Z,1.20
2018-02-21T20:15:42.030Z,1.20
2018-02-21T20:18:10.289Z,1.10
2018-02-21T20:20:38.508Z,1.20
2018-02-21T20:23:05.961Z,1.20
2018-02-21T20:25:33.417Z,1.20
2018-02-21T20:28:00.905Z,1.10
2018-02-21T20:30:28.373Z,1.10
2018-02-21T20:32:55.849Z,1.10
2018-02-21T20:35:23.334Z,1.00
2018-02-21T20:37:50.849Z,1.00
2018-02-21T20:40:18.321Z,1.00
2018-02-21T20:42:45.801Z,1.00
2018-02-21T20:45:13.258Z,1.00
2018-02-21T20:47:42.473Z,1.00
2018-02-21T20:50:09.990Z,0.90
2018-02-21T20:52:38.232Z,0.90
2018-02-21T20:55:05.701Z,0.90
2018-02-21T20:57:33.176Z,0.90
2018-02-21T21:00:00.628Z,0.90
2018-02-21T21:02:28.112Z,0.90
2018-02-21T21:04:55.581Z,0.80
2018-02-21T21:07:23.045Z,0.80
2018-02-21T21:09:50.554Z,0.80
2018-02-21T21:12:18.015Z,0.70
2018-02-21T21:14:45.496Z,0.70
2018-02-21T21:17:13.573Z,0.70
2018-02-21T21:19:41.079Z,0.70
2018-02-21T21:22:08.537Z,0.70
2018-02-21T21:24:35.993Z,0.70
2018-02-21T21:27:03.440Z,0.70
2018-02-21T21:29:30.964Z,0.60
2018-02-21T21:31:58.458Z,0.60
2018-02-21T21:34:25.909Z,0.60
2018-02-21T21:36:53.392Z,0.60
2018-02-21T21:39:21.144Z,0.60
2018-02-21T21:41:48.597Z,0.60
2018-02-21T21:44:16.061Z,0.60
2018-02-21T21:46:43.509Z,0.60
2018-02-21T21:49:10.980Z,0.60
2018-02-21T21:51:38.428Z,0.60
2018-02-21T21:54:05.892Z,0.50
2018-02-21T21:56:33.374Z,0.50
2018-02-21T21:59:00.833Z,0.50
2018-02-21T22:01:29.050Z,0.50
2018-02-21T22:03:56.517Z,0.50
2018-02-21T22:06:24.007Z,0.50
2018-02-21T22:08:51.453Z,0.50
2018-02-21T22:11:18.905Z,0.40
2018-02-21T22:13:47.111Z,0.40
2018-02-21T22:16:15.325Z,0.40
2018-02-21T22:18:43.461Z,0.30
2018-02-21T22:21:11.079Z,0.30
2018-02-21T22:23:38.538Z,0.40
2018-02-21T22:26:05.993Z,0.30
2018-02-21T22:28:33.445Z,0.30
2018-02-21T22:31:00.944Z,0.30
2018-02-21T22:33:28.421Z,0.30
2018-02-21T22:35:55.894Z,0.20
2018-02-21T22:38:23.354Z,0.20
2018-02-21T22:40:50.813Z,0.20
2018-02-21T22:43:18.274Z,0.20
2018-02-21T22:45:45.730Z,0.20
2018-02-21T22:48:13.209Z,0.10
2018-02-21T22:50:40.670Z,0.10
2018-02-21T22:53:08.130Z,0.10
2018-02-21T22:55:35.609Z,0.10
2018-02-21T22:58:03.086Z,0.20
2018-02-21T23:00:33.345Z,0.20
2018-02-21T23:03:00.801Z,0.10
2018-02-21T23:05:28.254Z,0.10
2018-02-21T23:07:55.722Z,0.10
2018-02-21T23:10:23.177Z,0.10
2018-02-21T23:12:50.633Z,0.10
2018-02-21T23:15:18.109Z,0.10
2018-02-21T23:17:45.557Z,0.10
2018-02-21T23:20:13.017Z,0.10
2018-02-21T23:22:40.877Z,0.00
2018-02-21T23:25:08.325Z,0.00
2018-02-21T23:27:35.776Z,0.00
2018-02-21T23:30:04.018Z,0.00
2018-02-21T23:32:31.481Z,0.00
2018-02-21T23:34:58.939Z,0.00
2018-02-21T23:37:26.401Z,-0.10
2018-02-21T23:39:53.930Z,-0.10
2018-02-21T23:42:21.389Z,-0.10
2018-02-21T23:44:48.854Z,-0.10
2018-02-21T23:47:16.319Z,-0.10
2018-02-21T23:49:43.794Z,-0.10
2018-02-21T23:52:11.262Z,-0.10
2018-02-21T23:54:39.705Z,-0.10
2018-02-21T23:57:07.170Z,-0.10
2018-02-21T23:59:34.646Z,-0.10
